createdAt,value
2023-04-26T01:00:41.365Z,35.10
2023-04-26T01:32:55.496Z,35.35
2023-04-26T01:35:23.921Z,35.58
2023-04-26T01:37:52.513Z,35.38
2023-04-26T01:40:22.606Z,35.50
2023-04-26T01:42:51.105Z,36.08
2023-04-26T01:45:19.694Z,35.08
2023-04-26T01:47:48.194Z,35.25
2023-04-26T01:50:16.760Z,35.35
2023-04-26T01:52:45.234Z,35.33
2023-04-26T01:55:13.781Z,35.22
2023-04-26T01:57:43.712Z,35.42
2023-04-26T02:00:13.371Z,35.13
2023-04-26T02:02:42.197Z,36.17
2023-04-26T02:05:12.991Z,34.95
2023-04-26T02:07:41.591Z,35.10
2023-04-26T02:10:11.136Z,35.17
2023-04-26T02:12:39.705Z,36.10
2023-04-26T02:15:10.974Z,35.85
2023-04-26T02:17:40.231Z,35.33
2023-04-26T02:20:11.530Z,35.35
2023-04-26T02:22:39.912Z,35.40
2023-04-26T02:25:09.551Z,35.47
2023-04-26T02:27:38.080Z,35.88
2023-04-26T02:30:09.845Z,35.35
2023-04-26T02:35:08.693Z,35.13
2023-04-26T02:37:37.448Z,35.45
2023-04-26T02:40:10.536Z,35.35
2023-04-26T02:42:38.961Z,35.90
2023-04-26T02:45:10.236Z,35.10
2023-04-26T02:47:39.004Z,35.15
2023-04-26T02:50:09.670Z,34.80
2023-04-26T02:52:38.553Z,35.50
2023-04-26T02:55:09.028Z,34.83
2023-04-26T02:57:37.875Z,35.47
2023-04-26T03:00:09.560Z,35.72
2023-04-26T03:05:07.304Z,35.08
2023-04-26T03:07:35.743Z,34.97
2023-04-26T03:10:04.947Z,35.42
2023-04-26T03:12:33.446Z,35.92
2023-04-26T03:15:03.491Z,35.00
2023-04-26T03:17:33.364Z,35.13
2023-04-26T03:20:02.917Z,35.55
2023-04-26T03:22:31.488Z,35.60
2023-04-26T03:24:59.895Z,35.30
2023-04-26T03:27:28.510Z,35.50
2023-04-26T03:29:56.933Z,35.50
2023-04-26T03:32:25.626Z,35.63
2023-04-26T03:34:55.502Z,35.08
2023-04-26T03:37:24.373Z,36.13
2023-04-26T03:39:53.854Z,35.58
2023-04-26T03:42:22.720Z,34.85
2023-04-26T03:44:51.108Z,35.35
2023-04-26T03:47:19.582Z,35.42
2023-04-26T03:49:48.031Z,35.28
2023-04-26T03:52:18.040Z,34.42
2023-04-26T03:54:46.611Z,35.70
2023-04-26T03:57:15.043Z,35.58
2023-04-26T03:59:43.821Z,35.05
2023-04-26T04:02:12.352Z,35.15
2023-04-26T04:04:41.092Z,35.38
2023-04-26T04:07:09.734Z,35.35
2023-04-26T04:09:39.581Z,35.08
2023-04-26T04:12:08.342Z,35.03
2023-04-26T04:14:36.910Z,34.75
2023-04-26T04:17:05.307Z,35.42
2023-04-26T04:19:33.774Z,35.10
2023-04-26T04:22:02.253Z,36.22
2023-04-26T04:24:32.270Z,35.65
2023-04-26T04:27:03.448Z,35.28
2023-04-26T04:29:32.798Z,34.85
2023-04-26T04:32:01.255Z,35.47
2023-04-26T04:34:30.284Z,37.58
2023-04-26T04:36:58.857Z,35.60
2023-04-26T04:39:27.333Z,35.50
2023-04-26T04:41:55.780Z,35.75
2023-04-26T04:44:27.144Z,35.60
2023-04-26T04:46:56.785Z,35.45
2023-04-26T04:49:25.624Z,35.50
2023-04-26T04:51:54.054Z,35.67
2023-04-26T04:54:22.534Z,36.03
2023-04-26T04:56:51.294Z,35.78
2023-04-26T04:59:19.736Z,36.13
2023-04-26T05:01:49.647Z,36.03
2023-04-26T05:04:18.337Z,36.67
2023-04-26T05:06:47.046Z,36.10
2023-04-26T05:09:15.469Z,35.65
2023-04-26T05:11:43.965Z,36.65
2023-04-26T05:14:12.612Z,36.17
2023-04-26T05:16:41.548Z,36.15
2023-04-26T05:19:13.409Z,36.58
2023-04-26T05:21:42.127Z,36.42
2023-04-26T05:29:09.292Z,37.10
2023-04-26T05:31:37.867Z,37.22
2023-04-26T05:34:06.467Z,37.22
2023-04-26T05:36:36.609Z,36.95
2023-04-26T13:26:04.532Z,40.05
2023-04-26T13:28:33.095Z,40.20
2023-04-26T13:31:01.714Z,42.05
2023-04-26T13:33:30.319Z,40.85
2023-04-26T13:35:58.860Z,40.10
2023-04-26T13:38:27.312Z,39.65
2023-04-26T13:40:57.182Z,39.13
2023-04-26T13:43:25.995Z,39.90
2023-04-26T13:45:54.506Z,39.85
2023-04-26T13:48:23.122Z,39.78
2023-04-26T13:50:51.759Z,39.72
2023-04-26T13:53:20.682Z,39.25
2023-04-26T13:55:49.244Z,38.75
2023-04-26T13:58:19.129Z,39.13
2023-04-26T14:00:47.684Z,54.00
2023-04-26T14:03:16.512Z,50.20
2023-04-26T14:05:45.063Z,43.38
2023-04-26T14:08:13.930Z,39.13
2023-04-26T14:10:42.548Z,39.00
2023-04-26T14:13:11.822Z,39.20
2023-04-26T14:15:41.800Z,39.03
2023-04-26T14:18:10.450Z,39.17
2023-04-26T14:20:38.904Z,39.25
2023-04-26T14:23:07.351Z,39.00
2023-04-26T14:25:35.859Z,39.08
2023-04-26T14:28:04.607Z,38.63
2023-04-26T14:30:33.034Z,38.85
2023-04-26T14:33:02.991Z,38.80
2023-04-26T14:35:31.689Z,39.45
2023-04-26T14:38:00.239Z,39.05
2023-04-26T14:40:28.628Z,39.53
2023-04-26T14:42:57.069Z,39.80
2023-04-26T14:45:36.889Z,39.50
2023-04-26T14:48:13.857Z,38.85
2023-04-26T14:50:42.455Z,38.85
2023-04-26T14:53:11.258Z,38.97
2023-04-26T14:55:39.765Z,38.67
2023-04-26T14:58:08.686Z,38.92
2023-04-26T15:00:38.106Z,39.03
2023-04-26T15:03:06.992Z,39.10
2023-04-26T15:05:36.994Z,42.00
2023-04-26T15:08:06.483Z,40.70
2023-04-26T15:10:34.897Z,39.67
2023-04-26T15:13:04.380Z,39.17
2023-04-26T15:15:32.883Z,39.80
2023-04-26T15:18:01.967Z,39.67
2023-04-26T15:20:30.767Z,39.00
2023-04-26T15:23:00.656Z,39.08
2023-04-26T15:25:29.075Z,38.97
2023-04-26T15:27:57.862Z,39.20
2023-04-26T15:30:26.682Z,38.75
2023-04-26T15:32:55.207Z,38.80
2023-04-26T15:35:25.181Z,38.65
2023-04-26T15:37:54.195Z,39.03
2023-04-26T15:40:24.715Z,38.58
2023-04-26T20:48:27.777Z,37.13
2023-04-26T20:50:58.765Z,37.55
2023-04-26T20:53:27.378Z,36.80
2023-04-26T20:55:56.003Z,37.28
2023-04-26T20:58:24.457Z,37.92
2023-04-26T21:00:54.008Z,37.83
2023-04-26T21:03:23.073Z,37.78
2023-04-26T21:05:51.868Z,38.28
2023-04-26T21:08:21.916Z,40.72
2023-04-26T21:10:50.524Z,37.92
2023-04-26T21:13:19.111Z,37.35
2023-04-26T21:15:48.399Z,43.55
2023-04-26T21:18:17.329Z,38.55
2023-04-26T21:20:45.906Z,38.30
2023-04-26T21:23:14.659Z,36.78
2023-04-26T21:25:48.356Z,37.08
2023-04-26T21:28:17.116Z,36.90
2023-04-26T21:30:45.803Z,37.13
2023-04-26T21:33:15.977Z,36.92
2023-04-26T21:35:44.516Z,36.38
2023-04-26T21:38:13.034Z,37.08
2023-04-26T21:40:41.615Z,36.03
2023-04-26T21:43:11.541Z,37.10
2023-04-26T21:45:39.989Z,37.97
2023-04-26T21:48:08.710Z,38.40
2023-04-26T21:50:37.340Z,38.58
2023-04-26T21:53:06.428Z,38.92
2023-04-26T21:55:34.910Z,36.92
2023-04-26T21:58:03.403Z,37.20
2023-04-26T22:00:33.641Z,37.50
2023-04-26T22:03:02.369Z,37.05
2023-04-26T22:05:30.929Z,36.85
2023-04-26T22:07:59.463Z,37.03
2023-04-26T22:10:28.094Z,37.65
2023-04-26T22:12:56.624Z,37.25
2023-04-26T22:17:54.887Z,37.72
2023-04-26T22:20:23.409Z,38.10
2023-04-26T22:22:52.310Z,38.33
2023-04-26T22:25:20.782Z,37.67
2023-04-26T22:27:49.898Z,38.60
2023-04-26T22:30:25.424Z,37.70
2023-04-26T22:37:55.082Z,37.35
2023-04-26T22:40:23.717Z,37.00
2023-04-26T22:42:52.331Z,36.38
2023-04-26T22:45:21.467Z,37.28
2023-04-26T22:47:50.125Z,37.00
2023-04-26T22:50:20.063Z,37.25
2023-04-26T22:52:49.892Z,36.75
2023-04-26T22:55:18.559Z,37.53
2023-04-26T22:57:47.612Z,37.13
2023-04-26T23:00:16.719Z,36.45
2023-04-26T23:02:45.547Z,37.05
2023-04-26T23:05:14.192Z,37.33
2023-04-26T23:07:44.178Z,36.83
2023-04-26T23:10:13.416Z,38.63
2023-04-26T23:12:41.971Z,37.47
2023-04-26T23:15:11.745Z,37.95
2023-04-26T23:17:41.946Z,36.90
2023-04-26T23:20:18.372Z,36.83
2023-04-26T23:22:48.223Z,37.97
2023-04-26T23:25:16.693Z,43.65
2023-04-26T23:27:45.174Z,39.20
2023-04-26T23:30:15.113Z,37.47
2023-04-26T23:32:43.729Z,37.45
2023-04-26T23:35:12.179Z,37.10
2023-04-26T23:37:40.993Z,36.83
2023-04-26T23:40:12.195Z,36.75
2023-04-26T23:42:40.657Z,36.85
2023-04-26T23:45:11.626Z,37.35
2023-04-26T23:47:40.261Z,37.10
2023-04-26T23:50:09.605Z,37.03
2023-04-26T23:52:38.093Z,37.00
2023-04-26T23:55:08.122Z,37.08
2023-04-26T23:57:40.748Z,36.55
